Terminal Aerodrome Forecast
Issued by NWS

Home | Current Version | Previous Version | Text Only | Print | Product List | Glossary On
Versions: 1 2 3 4 5 6 7 8 9 10 11 12 13 14 15 16 17 18 19 20 21 22
000
FTUS46 KMFR 040520
TAFOTH
TAF
KOTH 040520Z 0406/0506 36008KT P6SM SKC
     FM041000 36006KT 4SM BR OVC004
     FM041200 VRB03KT 1SM BR OVC002
     FM041400 VRB03KT 3SM BR OVC003
     FM041700 35010KT P6SM BKN004
     FM041900 35014G25KT P6SM SCT006 SCT250
     FM050400 36010KT P6SM OVC005=

USA.gov is the U.S. government's official web portal to all federal, state and local government web resources and services.